Terminal Aerodrome Forecast
Issued by NWS Duluth, MN

Home | Current Version | Previous Version | Text Only | Print | Product List | Glossary On
Versions: 1 2 3 4 5 6 7 8 9 10 11 12 13 14
000
FTUS43 KDLH 280500 RRA
TAFINL
TAF
KINL 280541Z 2806/2906 VRB03KT P6SM OVC120
     FM281100 12004KT 6SM -SN SCT017 OVC040
     FM281600 09004KT P6SM SCT025 OVC060
     FM281900 09005KT P6SM VCSH BKN025 OVC040
     FM290200 10006KT 6SM -SN OVC015=

USA.gov is the U.S. government's official web portal to all federal, state and local government web resources and services.